createdAt,value
2018-01-03T00:00:55.380Z,995.37
2018-01-03T00:01:55.297Z,995.33
2018-01-03T00:03:50.688Z,995.27
2018-01-03T00:04:49.745Z,995.27
2018-01-03T00:06:44.697Z,995.23
2018-01-03T00:07:44.181Z,995.25
2018-01-03T00:09:38.152Z,995.16
2018-01-03T00:10:37.621Z,995.08
2018-01-03T00:12:33.071Z,994.97
2018-01-03T00:13:32.084Z,994.88
2018-01-03T00:15:25.472Z,994.99
2018-01-03T00:16:26.055Z,994.95
2018-01-03T00:18:18.951Z,994.93
2018-01-03T00:19:18.952Z,994.86
2018-01-03T00:21:12.380Z,994.80
2018-01-03T00:22:12.380Z,994.76
2018-01-03T00:24:07.336Z,994.62
2018-01-03T00:25:06.828Z,994.61
2018-01-03T00:27:00.765Z,994.57
2018-01-03T00:28:00.773Z,994.52
2018-01-03T00:29:53.694Z,994.45
2018-01-03T00:30:53.673Z,994.41
2018-01-03T00:32:48.147Z,994.41
2018-01-03T00:33:49.559Z,994.33
2018-01-03T00:35:42.583Z,994.12
2018-01-03T00:36:43.076Z,994.10
2018-01-03T00:38:37.509Z,994.10
2018-01-03T00:39:37.501Z,994.00
2018-01-03T00:41:32.435Z,993.96
2018-01-03T00:42:31.935Z,993.94
2018-01-03T00:44:25.868Z,993.97
2018-01-03T00:45:25.865Z,993.93
2018-01-03T00:47:19.341Z,993.87
2018-01-03T00:48:19.306Z,993.81
2018-01-03T00:50:15.256Z,993.72
2018-01-03T00:51:15.220Z,993.63
2018-01-03T00:53:11.672Z,993.55
2018-01-03T00:54:11.154Z,993.45
2018-01-03T00:56:05.637Z,993.35
2018-01-03T00:57:06.105Z,993.32
2018-01-03T00:59:00.000Z,993.22
2018-01-03T01:00:00.016Z,993.13
2018-01-03T01:01:53.966Z,992.95
2018-01-03T01:02:53.477Z,992.94
2018-01-03T01:04:48.911Z,992.81
2018-01-03T01:05:48.419Z,992.76
2018-01-03T01:07:43.847Z,992.78
2018-01-03T01:08:42.303Z,992.67
2018-01-03T01:10:35.769Z,992.69
2018-01-03T01:11:35.742Z,992.65
2018-01-03T01:13:30.209Z,992.49
2018-01-03T01:14:30.195Z,992.38
2018-01-03T01:16:25.148Z,992.29
2018-01-03T01:17:24.635Z,992.24
2018-01-03T01:19:19.587Z,992.08
2018-01-03T01:20:19.072Z,991.98
2018-01-03T01:22:13.527Z,991.72
2018-01-03T01:23:13.514Z,991.61
2018-01-03T01:25:08.469Z,991.48
2018-01-03T01:26:08.065Z,991.44
2018-01-03T01:28:01.496Z,991.41
2018-01-03T01:29:01.475Z,991.38
2018-01-03T01:30:55.905Z,991.28
2018-01-03T01:31:55.911Z,991.31
2018-01-03T01:33:50.369Z,991.19
2018-01-03T01:34:50.339Z,991.17
2018-01-03T01:36:44.784Z,991.10
2018-01-03T01:37:44.760Z,991.00
2018-01-03T01:39:40.734Z,991.00
2018-01-03T01:40:39.211Z,990.94
2018-01-03T01:42:33.629Z,990.84
2018-01-03T01:43:33.634Z,990.83
2018-01-03T01:45:28.102Z,990.77
2018-01-03T01:46:28.075Z,990.67
2018-01-03T01:48:23.502Z,990.79
2018-01-03T01:49:22.507Z,990.70
2018-01-03T01:51:15.986Z,990.65
2018-01-03T01:52:15.969Z,990.56
2018-01-03T01:54:10.404Z,990.33
2018-01-03T01:55:10.401Z,990.28
2018-01-03T01:57:04.844Z,990.19
2018-01-03T01:58:04.840Z,990.12
2018-01-03T01:59:59.320Z,990.07
2018-01-03T02:00:59.281Z,989.90
2018-01-03T02:02:52.705Z,989.63
2018-01-03T02:03:52.701Z,989.54
2018-01-03T02:05:47.665Z,989.35
2018-01-03T02:06:47.143Z,989.27
2018-01-03T02:08:41.595Z,989.19
2018-01-03T02:09:41.584Z,989.12
2018-01-03T02:11:36.516Z,988.86
2018-01-03T02:12:36.024Z,988.81
2018-01-03T02:14:30.465Z,988.62
2018-01-03T02:15:30.437Z,988.47
2018-01-03T02:17:26.394Z,988.33
2018-01-03T02:18:24.846Z,988.29
2018-01-03T02:20:20.297Z,988.20
2018-01-03T02:21:19.795Z,988.13
2018-01-03T02:23:13.774Z,987.93
2018-01-03T02:24:13.719Z,987.85
2018-01-03T02:26:09.177Z,987.67
2018-01-03T02:27:08.172Z,987.67
2018-01-03T02:29:02.585Z,987.53
2018-01-03T02:30:02.599Z,987.50
2018-01-03T02:31:57.063Z,987.42
2018-01-03T02:32:57.564Z,987.33
2018-01-03T02:34:51.446Z,987.22
2018-01-03T02:35:51.466Z,987.15
2018-01-03T02:37:45.884Z,987.02
2018-01-03T02:38:46.416Z,986.91
2018-01-03T02:40:40.334Z,986.71
2018-01-03T02:41:40.344Z,986.67
2018-01-03T02:43:33.758Z,986.68
2018-01-03T02:44:34.283Z,986.67
2018-01-03T02:46:29.212Z,986.50
2018-01-03T02:47:28.211Z,986.49
2018-01-03T02:49:23.161Z,986.34
2018-01-03T02:50:23.595Z,986.32
2018-01-03T02:52:17.606Z,986.16
2018-01-03T02:53:17.108Z,986.12
2018-01-03T02:55:11.567Z,986.14
2018-01-03T02:56:11.535Z,986.18
2018-01-03T02:58:06.993Z,986.04
2018-01-03T02:59:05.952Z,986.02
2018-01-03T03:01:00.358Z,985.84
2018-01-03T03:02:00.375Z,985.85
2018-01-03T03:03:54.975Z,985.73
2018-01-03T03:04:55.363Z,985.70
2018-01-03T03:06:49.242Z,985.64
2018-01-03T03:07:49.759Z,985.52
2018-01-03T03:09:43.700Z,985.54
2018-01-03T03:10:43.693Z,985.48
2018-01-03T03:12:38.124Z,985.34
2018-01-03T03:13:38.123Z,985.31
2018-01-03T03:15:33.574Z,985.05
2018-01-03T03:16:32.568Z,985.04
2018-01-03T03:18:25.979Z,984.85
2018-01-03T03:19:26.514Z,984.65
2018-01-03T03:21:20.956Z,984.58
2018-01-03T03:22:20.947Z,984.47
2018-01-03T03:24:14.870Z,984.47
2018-01-03T03:25:14.865Z,984.44
2018-01-03T03:27:09.306Z,984.25
2018-01-03T03:28:09.819Z,984.27
2018-01-03T03:30:03.775Z,984.00
2018-01-03T03:31:02.766Z,983.91
2018-01-03T03:32:57.188Z,983.77
2018-01-03T03:33:57.207Z,983.65
2018-01-03T03:35:53.153Z,983.80
2018-01-03T03:36:53.666Z,983.77
2018-01-03T03:38:47.576Z,983.60
2018-01-03T03:39:48.091Z,983.58
2018-01-03T03:41:41.030Z,983.54
2018-01-03T03:42:42.537Z,983.38
2018-01-03T03:44:35.992Z,983.23
2018-01-03T03:45:34.986Z,983.20
2018-01-03T03:47:29.415Z,983.08
2018-01-03T03:48:29.510Z,982.94
2018-01-03T03:50:23.835Z,982.94
2018-01-03T03:51:23.323Z,983.02
2018-01-03T03:53:17.818Z,983.01
2018-01-03T03:54:17.776Z,983.01
2018-01-03T03:56:13.689Z,982.73
2018-01-03T03:57:13.710Z,982.80
2018-01-03T03:59:08.134Z,982.72
2018-01-03T04:00:08.140Z,982.73
2018-01-03T04:02:03.094Z,982.62
2018-01-03T04:03:02.571Z,982.65
2018-01-03T04:04:57.015Z,982.48
2018-01-03T04:05:57.519Z,982.40
2018-01-03T04:07:51.956Z,982.31
2018-01-03T04:08:51.427Z,982.23
2018-01-03T04:10:45.846Z,982.25
2018-01-03T04:11:45.864Z,982.20
2018-01-03T04:13:40.296Z,982.43
2018-01-03T04:14:40.319Z,982.44
2018-01-03T04:16:34.745Z,982.42
2018-01-03T04:17:34.753Z,982.37
2018-01-03T04:19:29.178Z,982.28
2018-01-03T04:20:29.688Z,982.22
2018-01-03T04:22:23.609Z,982.17
2018-01-03T04:23:24.124Z,982.18
2018-01-03T04:25:18.071Z,982.20
2018-01-03T04:26:18.064Z,982.21
2018-01-03T04:28:12.503Z,982.21
2018-01-03T04:29:12.473Z,982.29
2018-01-03T04:31:06.929Z,982.33
2018-01-03T04:32:06.953Z,982.51
2018-01-03T04:34:01.405Z,982.88
2018-01-03T04:35:01.389Z,982.62
2018-01-03T04:36:54.821Z,983.84
2018-01-03T04:37:55.354Z,984.36
2018-01-03T04:39:50.792Z,984.88
2018-01-03T04:40:50.773Z,984.59
2018-01-03T04:42:46.705Z,984.78
2018-01-03T04:43:46.715Z,984.67
2018-01-03T04:45:41.183Z,984.77
2018-01-03T04:46:41.248Z,984.80
2018-01-03T04:48:37.631Z,983.88
2018-01-03T04:49:37.109Z,983.87
2018-01-03T04:51:32.055Z,983.73
2018-01-03T04:52:32.047Z,984.10
2018-01-03T04:54:28.494Z,983.60
2018-01-03T04:55:27.990Z,983.62
2018-01-03T04:57:23.473Z,983.29
2018-01-03T04:58:23.402Z,983.24
2018-01-03T05:00:18.348Z,982.97
2018-01-03T05:01:18.370Z,982.99
2018-01-03T05:03:12.786Z,983.00
2018-01-03T05:04:12.271Z,983.06
2018-01-03T05:06:07.725Z,983.11
2018-01-03T05:07:06.710Z,983.06
2018-01-03T05:09:01.664Z,983.14
2018-01-03T05:10:01.134Z,983.04
2018-01-03T05:11:55.592Z,983.00
2018-01-03T05:12:55.587Z,983.03
2018-01-03T05:14:50.002Z,983.41
2018-01-03T05:15:50.024Z,983.53
2018-01-03T05:17:48.472Z,983.89
2018-01-03T05:18:48.964Z,984.02
2018-01-03T05:20:43.987Z,984.22
2018-01-03T05:21:43.960Z,984.31
2018-01-03T05:23:39.404Z,984.06
2018-01-03T05:24:37.431Z,983.86
2018-01-03T05:26:31.882Z,983.74
2018-01-03T05:27:33.296Z,983.77
2018-01-03T05:29:26.810Z,983.68
2018-01-03T05:30:26.329Z,983.63
2018-01-03T05:32:20.803Z,983.66
2018-01-03T05:33:20.783Z,983.59
2018-01-03T05:35:15.293Z,983.58
2018-01-03T05:36:15.315Z,983.62
2018-01-03T05:38:09.726Z,983.70
2018-01-03T05:39:09.706Z,983.75
2018-01-03T05:41:03.180Z,983.66
2018-01-03T05:42:03.149Z,983.69
2018-01-03T05:43:57.579Z,983.70
2018-01-03T05:44:58.114Z,983.62
2018-01-03T05:46:52.028Z,983.72
2018-01-03T05:47:52.554Z,983.67
2018-01-03T05:49:45.973Z,983.58
2018-01-03T05:50:45.462Z,983.68
2018-01-03T05:52:38.936Z,983.50
2018-01-03T05:53:38.888Z,983.57
2018-01-03T05:55:32.327Z,983.65
2018-01-03T05:56:32.337Z,983.75
2018-01-03T05:58:27.774Z,983.57
2018-01-03T05:59:27.281Z,983.61
2018-01-03T06:01:21.205Z,983.51
2018-01-03T06:02:21.720Z,983.63
2018-01-03T06:04:15.645Z,983.73
2018-01-03T06:05:15.615Z,983.60
2018-01-03T06:07:10.083Z,983.72
2018-01-03T06:08:10.089Z,983.72
2018-01-03T06:10:04.514Z,983.53
2018-01-03T06:11:05.055Z,983.34
2018-01-03T06:12:58.947Z,983.44
2018-01-03T06:13:58.944Z,983.53
2018-01-03T06:15:53.369Z,983.47
2018-01-03T06:16:53.360Z,983.63
2018-01-03T06:18:47.793Z,983.55
2018-01-03T06:19:47.802Z,983.57
2018-01-03T06:21:42.756Z,983.37
2018-01-03T06:22:42.746Z,983.25
2018-01-03T06:24:36.674Z,983.30
2018-01-03T06:25:36.688Z,983.40
2018-01-03T06:27:30.121Z,983.39
2018-01-03T06:28:30.114Z,983.44
2018-01-03T06:30:25.067Z,983.48
2018-01-03T06:31:24.546Z,983.46
2018-01-03T06:33:18.983Z,983.32
2018-01-03T06:34:18.984Z,983.29
2018-01-03T06:36:13.411Z,983.24
2018-01-03T06:37:13.412Z,983.40
2018-01-03T06:39:07.845Z,983.44
2018-01-03T06:40:07.852Z,983.61
2018-01-03T06:42:01.287Z,983.58
2018-01-03T06:43:01.283Z,983.50
2018-01-03T06:44:57.255Z,983.38
2018-01-03T06:45:58.735Z,983.34
2018-01-03T06:47:50.633Z,983.32
2018-01-03T06:48:50.636Z,983.13
2018-01-03T06:50:45.075Z,983.16
2018-01-03T06:51:45.087Z,983.17
2018-01-03T06:53:39.590Z,983.21
2018-01-03T06:54:39.528Z,983.11
2018-01-03T06:56:33.988Z,983.11
2018-01-03T06:57:33.970Z,983.07
2018-01-03T06:59:28.932Z,983.03
2018-01-03T07:00:28.403Z,982.99
2018-01-03T07:02:23.360Z,983.04
2018-01-03T07:03:22.871Z,982.87
2018-01-03T07:05:17.334Z,983.07
2018-01-03T07:06:18.235Z,983.09
2018-01-03T07:08:11.763Z,983.17
2018-01-03T07:09:11.709Z,983.10
2018-01-03T07:11:06.186Z,983.14
2018-01-03T07:12:06.150Z,983.12
2018-01-03T07:14:01.606Z,983.00
2018-01-03T07:15:00.591Z,982.82
2018-01-03T07:16:56.055Z,982.86
2018-01-03T07:17:55.041Z,982.98
2018-01-03T07:19:49.463Z,982.94
2018-01-03T07:20:49.479Z,982.71
2018-01-03T07:22:43.901Z,982.70
2018-01-03T07:23:43.913Z,982.83
2018-01-03T07:25:40.361Z,983.04
2018-01-03T07:26:39.861Z,983.03
2018-01-03T07:28:35.305Z,983.11
2018-01-03T07:29:35.394Z,983.09
2018-01-03T07:31:40.413Z,983.21
2018-01-03T07:32:40.400Z,983.35
2018-01-03T07:34:34.855Z,983.25
2018-01-03T07:35:35.351Z,983.31
2018-01-03T07:37:28.277Z,983.23
2018-01-03T07:38:28.801Z,983.36
2018-01-03T07:40:22.237Z,983.49
2018-01-03T07:41:21.730Z,983.56
2018-01-03T07:43:15.683Z,983.57
2018-01-03T07:44:15.171Z,983.47
2018-01-03T07:46:09.602Z,983.62
2018-01-03T07:47:10.118Z,983.52
2018-01-03T07:49:04.050Z,983.64
2018-01-03T07:50:03.044Z,983.68
2018-01-03T07:51:57.468Z,983.76
2018-01-03T07:52:57.470Z,983.66
2018-01-03T07:54:51.905Z,983.86
2018-01-03T07:55:51.918Z,983.78
2018-01-03T07:57:48.380Z,983.87
2018-01-03T07:58:46.395Z,983.82
2018-01-03T08:00:42.356Z,983.96
2018-01-03T08:01:40.857Z,983.96
2018-01-03T08:03:36.223Z,984.42
2018-01-03T08:04:36.295Z,984.41
2018-01-03T08:06:30.069Z,984.39
2018-01-03T08:07:30.044Z,984.45
2018-01-03T08:09:29.509Z,984.48
2018-01-03T08:10:28.986Z,984.42
2018-01-03T08:12:24.556Z,984.49
2018-01-03T08:13:24.037Z,984.41
2018-01-03T08:15:18.995Z,984.40
2018-01-03T08:16:18.481Z,984.36
2018-01-03T08:18:12.900Z,984.43
2018-01-03T08:19:12.902Z,984.34
2018-01-03T08:21:07.317Z,984.35
2018-01-03T08:22:07.328Z,984.32
2018-01-03T08:24:01.969Z,984.13
2018-01-03T08:25:02.780Z,984.09
2018-01-03T08:26:59.414Z,984.09
2018-01-03T08:27:57.898Z,984.08
2018-01-03T08:29:54.847Z,984.18
2018-01-03T08:30:53.836Z,984.06
2018-01-03T08:32:49.816Z,984.23
2018-01-03T08:33:49.788Z,984.18
2018-01-03T08:35:49.255Z,984.20
2018-01-03T08:36:48.246Z,984.17
2018-01-03T08:38:43.215Z,984.19
2018-01-03T08:39:42.176Z,984.09
2018-01-03T08:41:50.692Z,984.10
2018-01-03T08:42:49.797Z,984.21
2018-01-03T08:44:44.228Z,984.18
2018-01-03T08:45:45.121Z,984.29
2018-01-03T08:47:40.285Z,984.29
2018-01-03T08:48:41.254Z,984.47
2018-01-03T08:50:36.297Z,984.49
2018-01-03T08:51:36.304Z,984.59
2018-01-03T08:53:34.380Z,984.50
2018-01-03T08:54:34.363Z,984.65
2018-01-03T08:56:29.045Z,984.73
2018-01-03T08:57:29.048Z,984.87
2018-01-03T08:59:22.462Z,984.73
2018-01-03T09:00:22.475Z,984.87
2018-01-03T09:02:17.654Z,984.93
2018-01-03T09:03:16.902Z,985.07
2018-01-03T09:05:12.354Z,984.92
2018-01-03T09:06:10.861Z,985.05
2018-01-03T09:08:06.277Z,985.12
2018-01-03T09:09:06.806Z,985.25
2018-01-03T09:11:12.511Z,985.42
2018-01-03T09:14:25.662Z,985.59
2018-01-03T09:15:22.781Z,985.64
2018-01-03T09:17:19.234Z,985.62
2018-01-03T09:18:19.238Z,985.45
2018-01-03T09:20:15.151Z,985.65
2018-01-03T09:21:14.661Z,985.74
2018-01-03T09:23:09.108Z,985.84
2018-01-03T09:24:09.074Z,986.14
2018-01-03T09:26:02.488Z,985.95
2018-01-03T09:27:03.035Z,985.96
2018-01-03T09:28:56.977Z,986.00
2018-01-03T09:29:56.990Z,986.09
2018-01-03T09:31:50.911Z,986.06
2018-01-03T09:32:50.382Z,986.16
2018-01-03T09:34:44.860Z,986.10
2018-01-03T09:35:44.831Z,986.15
2018-01-03T09:37:38.289Z,986.12
2018-01-03T09:38:38.789Z,986.21
2018-01-03T09:40:31.683Z,986.06
2018-01-03T09:41:32.192Z,986.18
2018-01-03T09:43:26.656Z,986.04
2018-01-03T09:44:26.639Z,986.28
2018-01-03T09:46:20.575Z,986.23
2018-01-03T09:47:20.565Z,986.36
2018-01-03T09:49:17.035Z,986.56
2018-01-03T09:50:15.514Z,986.48
2018-01-03T09:52:09.499Z,986.50
2018-01-03T09:53:09.459Z,986.65
2018-01-03T09:55:03.406Z,986.54
2018-01-03T09:56:02.910Z,986.63
2018-01-03T09:57:56.356Z,986.75
2018-01-03T09:58:56.843Z,986.61
2018-01-03T10:00:51.301Z,986.56
2018-01-03T10:01:50.750Z,986.82
2018-01-03T10:03:44.181Z,986.79
2018-01-03T10:04:44.174Z,986.76
2018-01-03T10:06:38.659Z,986.87
2018-01-03T10:07:38.629Z,986.75
2018-01-03T10:09:34.084Z,986.78
2018-01-03T10:10:33.082Z,986.86
2018-01-03T10:12:27.527Z,987.02
2018-01-03T10:13:27.503Z,987.09
2018-01-03T10:15:21.945Z,987.00
2018-01-03T10:16:21.954Z,987.18
2018-01-03T10:18:17.398Z,986.90
2018-01-03T10:19:16.460Z,987.05
2018-01-03T10:21:09.831Z,987.17
2018-01-03T10:22:09.802Z,986.99
2018-01-03T10:24:03.241Z,987.19
2018-01-03T10:25:03.263Z,987.14
2018-01-03T10:26:56.684Z,987.20
2018-01-03T10:27:56.701Z,987.32
2018-01-03T10:29:50.130Z,986.99
2018-01-03T10:30:50.651Z,987.22
2018-01-03T10:32:43.582Z,987.15
2018-01-03T10:33:43.563Z,987.25
2018-01-03T10:35:37.503Z,987.28
2018-01-03T10:36:36.994Z,987.16
2018-01-03T10:38:30.456Z,987.39
2018-01-03T10:39:30.437Z,987.41
2018-01-03T10:41:26.372Z,987.27
2018-01-03T10:42:24.945Z,987.53
2018-01-03T10:44:18.417Z,987.50
2018-01-03T10:45:19.847Z,987.27
2018-01-03T10:47:12.850Z,987.52
2018-01-03T10:48:12.853Z,987.50
2018-01-03T10:50:06.802Z,987.56
2018-01-03T10:51:06.796Z,987.70
2018-01-03T10:53:00.748Z,987.57
2018-01-03T10:54:00.717Z,987.64
2018-01-03T10:55:55.169Z,987.67
2018-01-03T10:56:55.177Z,987.63
2018-01-03T10:58:49.603Z,987.67
2018-01-03T10:59:49.596Z,987.57
2018-01-03T11:01:45.551Z,987.69
2018-01-03T11:02:45.054Z,987.63
2018-01-03T11:04:37.503Z,987.73
2018-01-03T11:05:37.494Z,987.57
2018-01-03T11:07:31.898Z,987.57
2018-01-03T11:08:31.918Z,987.65
2018-01-03T11:10:25.353Z,987.68
2018-01-03T11:11:25.355Z,987.75
2018-01-03T11:13:20.310Z,987.71
2018-01-03T11:14:19.792Z,987.61
2018-01-03T11:16:13.749Z,987.86
2018-01-03T11:17:13.238Z,987.89
2018-01-03T11:19:21.163Z,987.98
2018-01-03T11:20:21.736Z,987.94
2018-01-03T11:22:16.625Z,987.90
2018-01-03T11:23:16.121Z,988.07
2018-01-03T11:25:09.104Z,987.96
2018-01-03T11:26:09.054Z,987.95
2018-01-03T11:28:04.019Z,988.08
2018-01-03T11:29:03.454Z,988.04
2018-01-03T11:31:00.899Z,988.21
2018-01-03T11:31:59.897Z,987.90
2018-01-03T11:33:54.141Z,988.15
2018-01-03T11:34:53.642Z,988.11
2018-01-03T11:36:48.071Z,987.82
2018-01-03T11:37:48.068Z,988.11
2018-01-03T11:39:43.023Z,988.32
2018-01-03T11:40:43.029Z,988.42
2018-01-03T11:42:37.463Z,988.10
2018-01-03T11:43:36.929Z,988.15
2018-01-03T11:45:30.398Z,988.27
2018-01-03T11:46:30.372Z,988.49
2018-01-03T11:48:25.851Z,988.41
2018-01-03T11:49:25.335Z,988.38
2018-01-03T11:51:20.277Z,988.35
2018-01-03T11:52:19.260Z,988.57
2018-01-03T11:54:12.736Z,988.85
2018-01-03T11:55:12.758Z,988.45
2018-01-03T11:57:07.178Z,988.72
2018-01-03T11:58:07.169Z,988.83
2018-01-03T12:00:00.667Z,988.87
2018-01-03T12:01:00.649Z,988.76
2018-01-03T12:02:54.087Z,988.71
2018-01-03T12:03:54.075Z,988.95
2018-01-03T12:05:48.519Z,988.76
2018-01-03T12:06:47.621Z,988.93
2018-01-03T12:08:40.986Z,988.79
2018-01-03T12:09:41.514Z,988.87
2018-01-03T12:11:35.938Z,988.92
2018-01-03T12:12:35.419Z,988.90
2018-01-03T12:14:29.867Z,988.93
2018-01-03T12:15:29.863Z,988.81
2018-01-03T12:17:23.271Z,988.75
2018-01-03T12:18:23.283Z,989.14
2018-01-03T12:20:17.725Z,988.93
2018-01-03T12:21:18.227Z,989.33
2018-01-03T12:23:12.137Z,989.19
2018-01-03T12:24:12.160Z,989.05
2018-01-03T12:26:07.109Z,989.18
2018-01-03T12:27:07.098Z,989.29
2018-01-03T12:29:01.029Z,989.21
2018-01-03T12:30:01.541Z,989.41
2018-01-03T12:31:56.485Z,989.32
2018-01-03T12:32:55.490Z,989.42
2018-01-03T12:34:48.945Z,989.49
2018-01-03T12:35:49.854Z,989.40
2018-01-03T12:37:43.303Z,989.18
2018-01-03T12:38:43.320Z,989.54
2018-01-03T12:40:36.770Z,989.67
2018-01-03T12:41:36.756Z,989.70
2018-01-03T12:43:31.205Z,989.77
2018-01-03T12:44:31.195Z,989.89
2018-01-03T12:46:26.640Z,989.81
2018-01-03T12:47:25.629Z,989.81
2018-01-03T12:49:19.130Z,989.80
2018-01-03T12:50:19.060Z,989.80
2018-01-03T12:52:14.031Z,989.80
2018-01-03T12:53:13.483Z,989.73
2018-01-03T12:55:08.437Z,989.88
2018-01-03T12:56:07.918Z,989.85
2018-01-03T12:58:02.360Z,989.76
2018-01-03T12:59:02.877Z,989.71
2018-01-03T13:00:56.841Z,989.81
2018-01-03T13:01:56.805Z,989.80
2018-01-03T13:03:52.693Z,989.78
2018-01-03T13:04:51.254Z,989.98
2018-01-03T13:06:44.702Z,989.93
2018-01-03T13:07:44.668Z,990.05
2018-01-03T13:09:39.094Z,989.78
2018-01-03T13:10:39.109Z,989.81
2018-01-03T13:12:33.555Z,989.90
2018-01-03T13:13:33.543Z,989.93
2018-01-03T13:15:28.050Z,990.06
2018-01-03T13:16:28.513Z,990.06
2018-01-03T13:18:23.454Z,990.07
2018-01-03T13:19:22.494Z,990.21
2018-01-03T13:21:16.946Z,990.09
2018-01-03T13:22:16.937Z,990.24
2018-01-03T13:24:11.372Z,990.40
2018-01-03T13:25:11.374Z,990.40
2018-01-03T13:27:05.825Z,990.38
2018-01-03T13:28:06.326Z,990.34
2018-01-03T13:29:59.260Z,990.43
2018-01-03T13:31:00.737Z,990.41
2018-01-03T13:32:56.175Z,990.61
2018-01-03T13:33:55.157Z,990.48
2018-01-03T13:35:49.594Z,990.60
2018-01-03T13:36:49.583Z,990.72
2018-01-03T13:38:43.049Z,990.70
2018-01-03T13:39:43.557Z,990.53
2018-01-03T13:41:37.452Z,990.83
2018-01-03T13:42:37.969Z,990.73
2018-01-03T13:44:32.424Z,990.87
2018-01-03T13:45:31.892Z,990.92
2018-01-03T13:47:25.357Z,990.96
2018-01-03T13:48:25.291Z,990.76
2018-01-03T13:50:18.770Z,990.98
2018-01-03T13:51:18.744Z,990.98
2018-01-03T13:53:12.217Z,991.01
2018-01-03T13:54:12.176Z,991.00
2018-01-03T13:56:05.636Z,991.09
2018-01-03T13:57:06.140Z,991.11
2018-01-03T13:59:00.574Z,991.14
2018-01-03T14:00:00.072Z,991.10
2018-01-03T14:01:56.029Z,991.14
2018-01-03T14:02:56.009Z,991.12
2018-01-03T14:04:50.465Z,991.20
2018-01-03T14:05:50.439Z,991.30
2018-01-03T14:07:44.842Z,991.43
2018-01-03T14:08:44.849Z,991.35
2018-01-03T14:10:39.308Z,991.42
2018-01-03T14:11:39.292Z,991.32
2018-01-03T14:13:32.761Z,991.51
2018-01-03T14:14:32.720Z,991.58
2018-01-03T14:16:27.181Z,991.46
2018-01-03T14:17:28.108Z,991.61
2018-01-03T14:19:22.132Z,991.59
2018-01-03T14:20:22.114Z,991.54
2018-01-03T14:22:16.554Z,991.67
2018-01-03T14:23:15.075Z,991.70
2018-01-03T14:25:11.532Z,991.81
2018-01-03T14:26:11.545Z,991.97
2018-01-03T14:28:04.886Z,991.89
2018-01-03T14:29:04.954Z,991.84
2018-01-03T14:30:57.830Z,991.93
2018-01-03T14:31:57.827Z,991.98
2018-01-03T14:33:53.277Z,992.04
2018-01-03T14:34:52.294Z,991.96
2018-01-03T14:36:48.256Z,991.89
2018-01-03T14:37:46.719Z,992.02
2018-01-03T14:39:41.155Z,991.85
2018-01-03T14:40:41.686Z,991.92
2018-01-03T14:42:34.574Z,992.08
2018-01-03T14:43:35.099Z,992.12
2018-01-03T14:45:28.994Z,992.01
2018-01-03T14:46:28.991Z,992.04
2018-01-03T14:48:24.942Z,992.05
2018-01-03T14:49:25.439Z,992.01
2018-01-03T14:51:19.383Z,992.12
2018-01-03T14:52:19.360Z,992.19
2018-01-03T14:54:15.845Z,992.14
2018-01-03T14:55:15.809Z,992.13
2018-01-03T14:57:09.747Z,992.14
2018-01-03T14:58:09.723Z,992.06
2018-01-03T15:00:06.667Z,992.07
2018-01-03T15:01:04.188Z,992.20
2018-01-03T15:02:58.661Z,992.15
2018-01-03T15:04:01.074Z,992.12
2018-01-03T15:05:53.090Z,992.14
2018-01-03T15:06:52.583Z,992.19
2018-01-03T15:08:45.506Z,992.27
2018-01-03T15:09:46.015Z,992.31
2018-01-03T15:11:42.951Z,992.31
2018-01-03T15:12:42.880Z,992.35
2018-01-03T15:14:36.393Z,992.32
2018-01-03T15:15:35.865Z,992.38
2018-01-03T15:17:29.812Z,992.46
2018-01-03T15:18:29.292Z,992.51
2018-01-03T15:20:24.735Z,992.72
2018-01-03T15:21:24.221Z,992.81
2018-01-03T15:23:18.153Z,992.74
2018-01-03T15:24:18.140Z,992.66
2018-01-03T15:26:11.625Z,992.79
2018-01-03T15:27:11.594Z,992.82
2018-01-03T15:29:06.049Z,992.91
2018-01-03T15:30:06.020Z,992.96
2018-01-03T15:32:01.474Z,992.96
2018-01-03T15:33:01.898Z,993.06
2018-01-03T15:34:57.410Z,993.07
2018-01-03T15:35:56.380Z,993.09
2018-01-03T15:37:50.852Z,993.04
2018-01-03T15:38:50.781Z,992.95
2018-01-03T15:40:45.246Z,993.09
2018-01-03T15:41:45.210Z,993.08
2018-01-03T15:43:39.647Z,993.07
2018-01-03T15:44:39.639Z,993.09
2018-01-03T15:46:34.606Z,993.08
2018-01-03T15:47:34.076Z,993.18
2018-01-03T15:49:28.548Z,993.21
2018-01-03T15:50:28.526Z,993.31
2018-01-03T15:52:23.472Z,993.50
2018-01-03T15:53:22.482Z,993.44
2018-01-03T15:55:15.395Z,993.53
2018-01-03T15:56:15.396Z,993.66
2018-01-03T15:58:09.334Z,993.68
2018-01-03T15:59:08.784Z,993.68
2018-01-03T16:01:03.736Z,993.71
2018-01-03T16:02:03.278Z,993.66
2018-01-03T16:03:56.689Z,993.81
2018-01-03T16:04:56.677Z,993.73
2018-01-03T16:06:50.126Z,993.62
2018-01-03T16:07:50.095Z,993.72
2018-01-03T16:09:44.592Z,993.77
2018-01-03T16:10:44.533Z,993.79
2018-01-03T16:12:38.985Z,993.79
2018-01-03T16:13:39.490Z,993.65
2018-01-03T16:15:33.964Z,993.66
2018-01-03T16:16:33.406Z,993.81
2018-01-03T16:18:26.826Z,993.66
2018-01-03T16:19:26.829Z,993.63
2018-01-03T16:21:20.270Z,993.75
2018-01-03T16:22:20.254Z,993.67
2018-01-03T16:24:14.708Z,993.61
2018-01-03T16:25:14.685Z,993.64
2018-01-03T16:27:09.160Z,993.71
2018-01-03T16:28:09.180Z,993.72
2018-01-03T16:30:02.619Z,993.68
2018-01-03T16:31:02.603Z,993.64
2018-01-03T16:32:56.014Z,993.57
2018-01-03T16:33:56.010Z,993.59
2018-01-03T16:35:50.486Z,993.62
2018-01-03T16:36:50.363Z,993.55
2018-01-03T16:38:45.811Z,993.62
2018-01-03T16:39:44.976Z,993.62
2018-01-03T16:41:40.401Z,993.64
2018-01-03T16:42:39.430Z,993.62
2018-01-03T16:44:32.867Z,993.60
2018-01-03T16:45:33.372Z,993.69
2018-01-03T16:47:29.830Z,993.65
2018-01-03T16:48:29.311Z,993.57
2018-01-03T16:50:22.258Z,993.66
2018-01-03T16:51:22.221Z,993.65
2018-01-03T16:53:17.162Z,993.72
2018-01-03T16:54:17.183Z,993.59
2018-01-03T16:56:11.140Z,993.65
2018-01-03T16:57:11.119Z,993.54
2018-01-03T16:59:08.064Z,993.67
2018-01-03T17:00:08.057Z,993.60
2018-01-03T17:02:03.120Z,993.56
2018-01-03T17:03:03.093Z,993.66
2018-01-03T17:04:56.522Z,993.73
2018-01-03T17:05:56.526Z,993.71
2018-01-03T17:07:52.436Z,993.74
2018-01-03T17:08:52.452Z,993.78
2018-01-03T17:10:48.899Z,993.81
2018-01-03T17:11:48.357Z,993.87
2018-01-03T17:13:44.297Z,993.87
2018-01-03T17:14:44.812Z,993.86
2018-01-03T17:16:40.739Z,993.93
2018-01-03T17:17:40.212Z,993.91
2018-01-03T17:19:36.700Z,993.91
2018-01-03T17:20:36.687Z,993.90
2018-01-03T17:22:33.606Z,993.99
2018-01-03T17:23:32.091Z,993.92
2018-01-03T17:25:26.547Z,993.98
2018-01-03T17:26:26.510Z,993.86
2018-01-03T17:28:21.517Z,993.90
2018-01-03T17:29:20.954Z,993.90
2018-01-03T17:31:15.900Z,993.83
2018-01-03T17:32:15.394Z,993.89
2018-01-03T17:34:09.892Z,993.87
2018-01-03T17:35:10.335Z,993.87
2018-01-03T17:37:05.767Z,993.96
2018-01-03T17:38:05.791Z,993.83
2018-01-03T17:40:00.220Z,993.80
2018-01-03T17:41:00.177Z,993.81
2018-01-03T17:42:54.622Z,993.80
2018-01-03T17:43:54.628Z,993.79
2018-01-03T17:45:49.579Z,993.86
2018-01-03T17:46:49.062Z,993.76
2018-01-03T17:48:46.020Z,993.89
2018-01-03T17:49:45.520Z,993.73
2018-01-03T17:51:40.941Z,993.78
2018-01-03T17:52:40.909Z,993.87
2018-01-03T17:54:35.381Z,993.98
2018-01-03T17:55:35.352Z,993.84
2018-01-03T17:57:31.294Z,993.83
2018-01-03T17:58:31.782Z,993.82
2018-01-03T18:00:25.683Z,993.79
2018-01-03T18:01:25.675Z,993.72
2018-01-03T18:03:21.625Z,993.65
2018-01-03T18:04:22.120Z,993.62
2018-01-03T18:06:16.577Z,993.74
2018-01-03T18:07:16.085Z,993.71
2018-01-03T18:09:13.033Z,993.61
2018-01-03T18:10:11.033Z,993.72